Главная страница
METAR-TAF:

METAR-TAF

Аэропорты :

Аделаида, Австралия

широта: 34-56S, долгота: 138-31E, высота над уровнем моря: 6 м

Текущие метеонаблюдения

Эта сводка был подготовлена 41 минут назад, в 20:00 UTC
Ветер 1 Узел от северо-восточный
Температура 4°C
Влажность 87%
Давление 1032 hPa
Видимость 10 км и более
Рассеянная облачность на высоте 4500 фута

METAR: YPAD 242000Z 05001KT 9999 BKN045 04/02 Q1032 NOSIG

Время: 06:11 (20:41 UTC)

Прогноз

Эта сводка был подготовлена 3 часа и 39 минут назад, в 17:02 UTC
Прогноз действительный с 24-го 18 UTC до 25-го 24 UTC
Ветер 5 Узел переменных направлений
Видимость 10 км и более
Нет облачности ниже 1500 м, и нет кучево-дождевой облачности

TAF: YPAD 241702Z 2418/2524 VRB05KT CAVOK

Метеонаблюдения и прогнозы для более 4000 аэропортов (сводки METAR и TAF).

Имеющиеся станции представлены на карте желтыми и красными точками.

Чтобы увидеть название станции, наведите на нее мышь.

Затем щелкните, чтобы увидеть метеонаблюдения и метеопрогнозы.

Управление картой: чтобы увеличить масштаб, щелкните зеленые кнопки с черным крестиком; чтобы уменьшить масштаб, щелкните зеленую кнопку с тире; для просмотра соседних карт щелкайте зеленые стрелки.


METAR-TAF: